Minneapolis, Minnesota
Traffic Map
Current Weather Conditions
Minneapolis, Minnesota
Broken Clouds
Broken Clouds
24°
Feels Like: 15°
Wind Chill: 15° Ceiling: 4000
Heat Index: 24° Visibility: 10mi
Dew Point: 16° Wind: 8mph
Humidity: 71% Direction: 230° (SW)
Pressure: 29.74in Gusts: 0mph
Raw Report DataKMSP 261153Z 23007KT 10SM BKN040 M04/M09 A2974 RMK AO2 SLP082 T10441089 11033 21044 56005
Traffic Incident Summary
Active as of:
Severity:
Category:
InformationThere was an issue retrieving the traffic information for this location. Please try a different location or try again shortly.
Advertisements
Track Severe Weather on mobile